Time;durP1;ratioP1;P1;durP2;ratioP2;P2;SDS_P1;SDS_P2;PMS_P1;PMS_P2;Temp;Humidity;BMP_temperature;BMP_pressure;BME280_temperature;BME280_humidity;BME280_pressure;Samples;Min_cycle;Max_cycle;Signal;HPM_P1;HPM_P2
2022/03/16 00:00:10;;;;;;;42.53;8.57;;;1.70;78.90;;;;;;4162897;27;20041;-74
2022/03/16 00:02:10;;;;;;;91.43;9.68;;;1.80;78.90;;;;;;4149010;28;20432;-74
2022/03/16 00:04:11;;;;;;;122.55;10.32;;;1.80;78.90;;;;;;4140927;28;20064;-74
2022/03/16 00:06:12;;;;;;;32.40;6.97;;;1.80;78.90;;;;;;4143169;28;20385;-74
2022/03/16 00:08:12;;;;;;;39.65;6.95;;;1.90;79.00;;;;;;4156356;28;20044;-75
2022/03/16 00:10:13;;;;;;;36.58;7.47;;;1.90;79.00;;;;;;4121781;28;20050;-75
2022/03/16 00:12:14;;;;;;;87.10;9.43;;;1.90;79.70;;;;;;4142272;28;20034;-74
2022/03/16 00:14:14;;;;;;;78.93;8.60;;;2.00;79.80;;;;;;4109465;28;20039;-75
2022/03/16 00:16:15;;;;;;;64.45;8.82;;;2.00;79.00;;;;;;4158984;28;20029;-74
2022/03/16 00:18:15;;;;;;;112.60;8.98;;;2.00;78.80;;;;;;4165778;28;20026;-74
2022/03/16 00:20:16;;;;;;;82.47;8.75;;;2.00;78.60;;;;;;4138257;28;20394;-75
2022/03/16 00:22:17;;;;;;;94.85;8.10;;;2.00;78.60;;;;;;4123521;28;20042;-74
2022/03/16 00:24:17;;;;;;;91.80;8.50;;;2.00;78.70;;;;;;4145693;28;20398;-75
2022/03/16 00:26:18;;;;;;;108.47;11.10;;;2.00;78.70;;;;;;4148088;28;20448;-74
2022/03/16 00:28:18;;;;;;;72.93;8.80;;;2.00;78.80;;;;;;4152716;28;20034;-74
2022/03/16 00:30:19;;;;;;;66.38;8.60;;;1.90;78.80;;;;;;4144996;28;20018;-74
2022/03/16 00:32:20;;;;;;;39.25;7.40;;;1.90;78.70;;;;;;4155408;28;20025;-74
2022/03/16 00:34:20;;;;;;;45.88;8.50;;;1.90;78.70;;;;;;4144889;28;20345;-74
2022/03/16 00:36:21;;;;;;;64.55;7.38;;;1.90;78.60;;;;;;4147061;28;20098;-74
2022/03/16 00:38:22;;;;;;;61.22;8.98;;;1.90;78.50;;;;;;4131929;28;20521;-74
2022/03/16 00:40:23;;;;;;;62.47;7.88;;;1.80;78.50;;;;;;4156551;28;20076;-74
2022/03/16 00:42:23;;;;;;;44.03;7.65;;;1.80;78.70;;;;;;4147902;28;20379;-74
2022/03/16 00:44:24;;;;;;;55.67;7.22;;;1.70;78.70;;;;;;4122914;28;20022;-75
2022/03/16 00:46:24;;;;;;;56.70;6.60;;;1.70;78.60;;;;;;4127852;28;20741;-74
2022/03/16 00:48:25;;;;;;;42.08;6.75;;;1.70;78.50;;;;;;4153839;28;20030;-74
2022/03/16 00:50:26;;;;;;;39.92;6.78;;;1.70;78.30;;;;;;4141387;28;20463;-74
2022/03/16 00:52:27;;;;;;;23.75;6.00;;;1.60;78.20;;;;;;4113167;28;20034;-74
2022/03/16 00:54:28;;;;;;;42.50;6.75;;;1.60;78.20;;;;;;4141068;28;20465;-74
2022/03/16 00:56:29;;;;;;;37.33;6.65;;;1.60;78.20;;;;;;4128898;28;20038;-74
2022/03/16 00:58:29;;;;;;;43.67;6.85;;;1.50;78.90;;;;;;4140506;28;20021;-74
2022/03/16 01:00:30;;;;;;;52.97;7.07;;;1.50;78.40;;;;;;4116174;28;20077;-75
2022/03/16 01:02:31;;;;;;;26.77;6.30;;;1.50;78.50;;;;;;4141136;28;20036;-75
2022/03/16 01:04:32;;;;;;;39.33;6.43;;;1.40;78.40;;;;;;4152107;28;20030;-74
2022/03/16 01:06:32;;;;;;;29.80;6.38;;;1.40;78.40;;;;;;4123443;28;20015;-75
2022/03/16 01:08:33;;;;;;;55.20;6.22;;;1.30;78.40;;;;;;4118591;28;20113;-75
2022/03/16 01:10:33;;;;;;;33.55;6.60;;;1.30;78.60;;;;;;4141231;28;20040;-74
2022/03/16 01:12:34;;;;;;;40.45;7.15;;;1.20;78.60;;;;;;4143264;28;20086;-74
2022/03/16 01:14:35;;;;;;;43.40;6.28;;;1.20;78.70;;;;;;4130604;28;20026;-74
2022/03/16 01:16:38;;;;;;;48.67;6.47;;;1.20;78.90;;;;;;4133866;28;20383;-74
2022/03/16 01:18:39;;;;;;;43.55;6.30;;;1.20;79.00;;;;;;4144269;28;20399;-75
2022/03/16 01:20:39;;;;;;;43.97;6.95;;;1.20;79.00;;;;;;4124012;28;20113;-75
2022/03/16 01:22:40;;;;;;;48.92;6.80;;;1.20;79.00;;;;;;4123404;28;20126;-74
2022/03/16 01:24:41;;;;;;;29.58;6.50;;;1.10;79.10;;;;;;4137268;28;20033;-74
2022/03/16 01:26:41;;;;;;;44.28;6.85;;;1.10;79.00;;;;;;4143030;28;21787;-74
2022/03/16 01:28:42;;;;;;;56.13;7.25;;;1.10;79.00;;;;;;4117893;28;20074;-74
2022/03/16 01:30:43;;;;;;;56.90;7.45;;;1.10;79.00;;;;;;4139012;28;20018;-74
2022/03/16 01:32:43;;;;;;;37.35;7.40;;;1.10;79.00;;;;;;4132860;28;20033;-74
2022/03/16 01:34:44;;;;;;;40.80;7.57;;;1.10;79.00;;;;;;4142232;28;20026;-73
2022/03/16 01:36:44;;;;;;;32.03;7.35;;;1.00;79.10;;;;;;4126620;28;20491;-74
2022/03/16 01:38:45;;;;;;;57.33;7.97;;;1.00;79.00;;;;;;4128164;28;20107;-74
2022/03/16 01:40:46;;;;;;;43.85;7.82;;;1.00;79.10;;;;;;4115382;28;20041;-74
2022/03/16 01:42:46;;;;;;;47.35;7.95;;;1.00;79.20;;;;;;4141689;28;20048;-74
2022/03/16 01:44:48;;;;;;;25.05;7.45;;;1.00;79.40;;;;;;4138865;28;20454;-74
2022/03/16 01:46:49;;;;;;;43.30;7.32;;;1.00;79.50;;;;;;4134557;28;20131;-74
2022/03/16 01:48:50;;;;;;;45.97;8.50;;;1.00;79.70;;;;;;4153798;28;20022;-74
2022/03/16 01:50:51;;;;;;;45.45;7.50;;;0.90;79.70;;;;;;4134969;28;20034;-74
2022/03/16 01:52:51;;;;;;;52.25;7.80;;;0.90;79.70;;;;;;4143302;28;20115;-74
2022/03/16 01:54:52;;;;;;;44.30;7.70;;;0.90;79.70;;;;;;4205245;28;20077;-74
2022/03/16 01:56:53;;;;;;;29.85;7.72;;;0.90;79.70;;;;;;4140491;28;20407;-74
2022/03/16 01:58:53;;;;;;;40.78;7.38;;;0.90;79.60;;;;;;4135205;28;20101;-74
2022/03/16 02:00:54;;;;;;;40.85;8.05;;;0.90;79.50;;;;;;4138355;28;20034;-73
2022/03/16 02:02:54;;;;;;;27.15;7.30;;;0.90;79.60;;;;;;4141782;28;20046;-74
2022/03/16 02:04:55;;;;;;;67.15;8.00;;;0.80;79.40;;;;;;4167440;28;20029;-74
2022/03/16 02:06:56;;;;;;;55.97;7.30;;;0.80;79.40;;;;;;4114294;28;20037;-74
2022/03/16 02:08:57;;;;;;;63.95;8.00;;;0.80;79.30;;;;;;4157143;28;20033;-74
2022/03/16 02:10:57;;;;;;;41.33;6.95;;;0.80;79.30;;;;;;4164199;28;20029;-74
2022/03/16 02:12:58;;;;;;;47.13;7.43;;;0.80;79.30;;;;;;4155112;28;20046;-74
2022/03/16 02:14:58;;;;;;;60.95;6.68;;;0.80;79.30;;;;;;4142895;28;20425;-73
2022/03/16 02:16:59;;;;;;;57.45;7.07;;;0.70;79.20;;;;;;4150177;28;20081;-73
2022/03/16 02:19:00;;;;;;;76.45;6.15;;;0.70;79.20;;;;;;4147050;28;20402;-73
2022/03/16 02:21:02;;;;;;;51.33;6.32;;;0.70;79.30;;;;;;4130827;28;20030;-74
2022/03/16 02:23:07;;;;;;;47.65;5.88;;;0.60;79.40;;;;;;4139523;28;21707;-73
2022/03/16 02:25:08;;;;;;;38.03;5.65;;;0.60;79.50;;;;;;4159297;27;20025;-74
2022/03/16 02:27:08;;;;;;;48.00;6.22;;;0.60;79.50;;;;;;4145414;28;20042;-74
2022/03/16 02:29:09;;;;;;;58.33;7.22;;;0.60;80.30;;;;;;4151150;28;20030;-74
2022/03/16 02:31:09;;;;;;;20.90;5.72;;;0.60;79.50;;;;;;4144397;28;20034;-74
2022/03/16 02:33:10;;;;;;;26.65;5.78;;;0.60;79.60;;;;;;4139652;28;20026;-74
2022/03/16 02:35:11;;;;;;;41.15;6.15;;;0.50;79.60;;;;;;4135262;28;20039;-74
2022/03/16 02:37:11;;;;;;;31.10;5.75;;;0.50;79.60;;;;;;4149609;28;20034;-74
2022/03/16 02:39:12;;;;;;;55.80;8.10;;;0.50;79.60;;;;;;4150080;28;20025;-74
2022/03/16 02:41:13;;;;;;;47.67;5.88;;;0.50;79.60;;;;;;4145837;28;20083;-74
2022/03/16 02:43:13;;;;;;;49.53;5.32;;;0.50;79.60;;;;;;4138720;28;20055;-74
2022/03/16 02:45:14;;;;;;;67.30;5.82;;;0.40;79.60;;;;;;4148885;28;20051;-74
2022/03/16 02:47:14;;;;;;;70.38;5.60;;;0.50;79.70;;;;;;4148366;28;20028;-73
2022/03/16 02:49:16;;;;;;;95.40;7.45;;;0.50;79.80;;;;;;4147276;28;20026;-74
2022/03/16 02:51:17;;;;;;;101.50;6.00;;;0.50;79.90;;;;;;4142490;28;20038;-74
2022/03/16 02:53:18;;;;;;;101.35;6.55;;;0.50;80.00;;;;;;4148893;28;20036;-74
2022/03/16 02:55:18;;;;;;;104.00;5.88;;;0.50;80.00;;;;;;4123943;28;20030;-74
2022/03/16 02:57:19;;;;;;;85.20;6.55;;;0.40;79.80;;;;;;4132390;28;20046;-74
2022/03/16 02:59:20;;;;;;;75.10;6.10;;;0.40;80.60;;;;;;4125403;28;20034;-74
2022/03/16 03:01:20;;;;;;;74.22;5.60;;;0.40;79.80;;;;;;4126260;28;20494;-74
2022/03/16 03:03:22;;;;;;;74.35;5.70;;;0.40;79.80;;;;;;4144311;28;20033;-74
2022/03/16 03:05:22;;;;;;;68.40;5.07;;;0.40;79.80;;;;;;4142703;28;20090;-74
2022/03/16 03:07:23;;;;;;;60.95;4.90;;;0.40;79.70;;;;;;4127074;28;20034;-73
2022/03/16 03:09:24;;;;;;;27.92;4.20;;;0.40;79.60;;;;;;4130778;28;20034;-74
2022/03/16 03:11:24;;;;;;;46.58;4.68;;;0.30;79.50;;;;;;4142287;28;20087;-74
2022/03/16 03:13:25;;;;;;;62.50;4.88;;;0.30;79.40;;;;;;4147400;28;20018;-74
2022/03/16 03:15:25;;;;;;;66.70;5.30;;;0.30;79.40;;;;;;4143654;28;20024;-74
2022/03/16 03:17:26;;;;;;;114.38;7.50;;;0.20;79.50;;;;;;4151786;28;20030;-74
2022/03/16 03:19:27;;;;;;;66.18;5.50;;;0.20;79.60;;;;;;4134352;28;20393;-74
2022/03/16 03:21:27;;;;;;;62.80;5.40;;;0.20;79.80;;;;;;4160339;28;20075;-74
2022/03/16 03:23:28;;;;;;;76.18;6.25;;;0.20;79.90;;;;;;4139930;28;20038;-74
2022/03/16 03:25:28;;;;;;;115.18;7.47;;;0.20;80.20;;;;;;4146454;28;20176;-74
2022/03/16 03:27:32;;;;;;;143.88;7.97;;;0.20;80.40;;;;;;4147015;28;20072;-77
2022/03/16 03:29:32;;;;;;;138.68;8.93;;;0.20;80.50;;;;;;4133241;28;20025;-74
2022/03/16 03:31:34;;;;;;;157.60;11.40;;;0.20;80.70;;;;;;4131185;28;20038;-74
2022/03/16 03:33:34;;;;;;;147.57;12.27;;;0.20;81.00;;;;;;4137957;28;20058;-73
2022/03/16 03:35:35;;;;;;;95.13;7.03;;;0.20;81.20;;;;;;4138247;28;20026;-74
2022/03/16 03:37:36;;;;;;;128.45;9.02;;;0.20;81.30;;;;;;4143137;28;20032;-74
2022/03/16 03:39:37;;;;;;;109.40;9.90;;;0.30;81.50;;;;;;4147626;28;20045;-74
2022/03/16 03:41:37;;;;;;;145.85;9.98;;;0.30;81.70;;;;;;4145044;28;20026;-74
2022/03/16 03:43:38;;;;;;;227.82;11.55;;;0.40;81.80;;;;;;4151476;28;20696;-76
2022/03/16 03:45:39;;;;;;;177.15;11.45;;;0.40;81.90;;;;;;4145787;28;20033;-74
2022/03/16 03:47:39;;;;;;;129.18;12.73;;;0.50;82.00;;;;;;4140258;28;20134;-76
2022/03/16 03:49:40;;;;;;;135.95;11.65;;;0.50;82.20;;;;;;4126476;28;20415;-74
2022/03/16 03:51:41;;;;;;;135.93;10.88;;;0.50;82.30;;;;;;4126619;28;20034;-76
2022/03/16 03:53:41;;;;;;;131.00;10.57;;;0.60;82.40;;;;;;4138799;28;20014;-76
2022/03/16 03:55:42;;;;;;;153.13;11.40;;;0.60;82.50;;;;;;4146694;28;20030;-76
2022/03/16 03:57:43;;;;;;;196.93;12.77;;;0.60;82.50;;;;;;4144284;28;20139;-76
2022/03/16 03:59:44;;;;;;;144.23;10.85;;;0.70;82.70;;;;;;4140411;28;20033;-76
2022/03/16 04:01:45;;;;;;;228.90;15.52;;;0.70;82.70;;;;;;4152326;28;20029;-74
2022/03/16 04:03:45;;;;;;;198.77;11.93;;;0.80;82.80;;;;;;4148718;28;20033;-74
2022/03/16 04:05:46;;;;;;;175.85;15.68;;;0.80;82.80;;;;;;4155991;28;20049;-74
2022/03/16 04:07:48;;;;;;;223.00;16.85;;;0.80;82.90;;;;;;4132666;28;20033;-74
2022/03/16 04:09:50;;;;;;;155.60;15.32;;;0.90;82.90;;;;;;4151401;28;20115;-74
2022/03/16 04:11:51;;;;;;;146.27;12.15;;;0.90;82.90;;;;;;4153299;28;20030;-74
2022/03/16 04:13:52;;;;;;;257.40;18.10;;;1.00;83.10;;;;;;4146879;28;20054;-76
2022/03/16 04:15:52;;;;;;;192.05;13.88;;;1.00;83.00;;;;;;4149157;28;20644;-76
2022/03/16 04:17:53;;;;;;;171.63;13.85;;;1.00;82.90;;;;;;4138014;28;20828;-76
2022/03/16 04:19:54;;;;;;;155.10;14.82;;;1.10;82.80;;;;;;4143676;28;20041;-76
2022/03/16 04:21:54;;;;;;;133.35;11.50;;;1.10;82.80;;;;;;4175463;28;20049;-76
2022/03/16 04:23:55;;;;;;;165.00;12.68;;;1.10;82.70;;;;;;4149777;28;20120;-76
2022/03/16 04:25:55;;;;;;;106.25;9.68;;;1.10;82.70;;;;;;4132077;28;20049;-76
2022/03/16 04:27:56;;;;;;;169.23;11.43;;;1.10;82.60;;;;;;4143775;28;20046;-73
2022/03/16 04:29:56;;;;;;;191.80;12.30;;;1.10;82.70;;;;;;4125680;28;20046;-76
2022/03/16 04:31:58;;;;;;;130.77;10.75;;;1.20;82.80;;;;;;4140269;28;20025;-76
2022/03/16 04:33:58;;;;;;;137.27;10.30;;;1.10;82.90;;;;;;4139930;28;20045;-74
2022/03/16 04:35:59;;;;;;;173.38;10.10;;;1.10;82.80;;;;;;4142942;28;20493;-74
2022/03/16 04:38:00;;;;;;;121.07;9.43;;;1.10;82.60;;;;;;4123499;28;20029;-76
2022/03/16 04:40:00;;;;;;;120.90;9.93;;;1.10;82.60;;;;;;4147994;28;20493;-76
2022/03/16 04:42:01;;;;;;;108.50;10.07;;;1.10;82.60;;;;;;4145935;28;20099;-77
2022/03/16 04:44:02;;;;;;;113.63;8.52;;;1.10;82.60;;;;;;4144007;28;20076;-76
2022/03/16 04:46:04;;;;;;;141.18;11.98;;;1.10;82.60;;;;;;4139880;28;20026;-74
2022/03/16 04:48:08;;;;;;;154.50;9.77;;;1.10;82.70;;;;;;4151389;28;20490;-74
2022/03/16 04:50:09;;;;;;;141.02;8.60;;;1.20;82.90;;;;;;4134326;28;20501;-74
2022/03/16 04:52:10;;;;;;;104.68;7.38;;;1.20;83.00;;;;;;4145598;28;20068;-76
2022/03/16 04:54:10;;;;;;;83.15;8.13;;;1.10;82.80;;;;;;4136255;28;20123;-76
2022/03/16 04:56:12;;;;;;;126.55;7.78;;;1.10;82.70;;;;;;4139464;28;20070;-76
2022/03/16 04:58:13;;;;;;;87.85;7.55;;;1.10;82.70;;;;;;4154419;28;20072;-76
2022/03/16 05:00:14;;;;;;;114.18;8.93;;;1.20;82.70;;;;;;4140596;28;20033;-77
2022/03/16 05:02:14;;;;;;;103.25;8.63;;;1.10;82.60;;;;;;4139847;28;20114;-77
2022/03/16 05:04:15;;;;;;;102.55;11.32;;;1.10;82.80;;;;;;4142711;28;20545;-77
2022/03/16 05:06:15;;;;;;;103.82;11.88;;;1.10;82.80;;;;;;4139581;28;21603;-76
2022/03/16 05:08:16;;;;;;;95.78;10.07;;;1.10;82.70;;;;;;4134431;28;20026;-77
2022/03/16 05:10:16;;;;;;;117.30;10.10;;;1.10;82.70;;;;;;4132881;28;20030;-76
2022/03/16 05:12:17;;;;;;;170.77;12.05;;;1.10;82.70;;;;;;4147218;28;20094;-77
2022/03/16 05:14:18;;;;;;;76.28;9.27;;;1.10;83.00;;;;;;4142851;28;20483;-77
2022/03/16 05:16:18;;;;;;;89.15;9.45;;;1.10;83.00;;;;;;4145481;28;20037;-76
2022/03/16 05:18:19;;;;;;;102.90;10.60;;;1.10;83.00;;;;;;4117970;28;20047;-77
2022/03/16 05:20:19;;;;;;;86.38;10.30;;;1.10;83.00;;;;;;4143160;28;20063;-77
2022/03/16 05:22:20;;;;;;;99.55;10.90;;;1.20;83.00;;;;;;4144483;28;20037;-76
2022/03/16 05:24:22;;;;;;;76.88;10.73;;;1.10;82.90;;;;;;4155644;28;20034;-76
2022/03/16 05:26:23;;;;;;;81.03;10.38;;;1.10;83.60;;;;;;4132401;28;20043;-76
2022/03/16 05:28:23;;;;;;;93.32;11.50;;;1.10;83.00;;;;;;4139963;28;20038;-76
2022/03/16 05:30:26;;;;;;;93.88;11.27;;;1.10;83.00;;;;;;4143149;28;20057;-76
2022/03/16 05:32:26;;;;;;;136.57;14.00;;;1.10;83.10;;;;;;4109265;28;20031;-76
2022/03/16 05:34:27;;;;;;;93.60;12.18;;;1.10;83.10;;;;;;4148155;28;20518;-76
2022/03/16 05:36:28;;;;;;;96.82;12.30;;;1.10;83.10;;;;;;4145806;28;20256;-77
2022/03/16 05:38:28;;;;;;;102.03;11.65;;;1.10;83.10;;;;;;4129991;28;20157;-77
2022/03/16 05:40:29;;;;;;;104.88;12.00;;;1.10;83.10;;;;;;4132286;28;20037;-77
2022/03/16 05:42:30;;;;;;;154.50;12.98;;;1.10;83.10;;;;;;4152338;28;20037;-76
2022/03/16 05:44:30;;;;;;;62.80;11.30;;;1.10;83.20;;;;;;4141586;28;20036;-77
2022/03/16 05:46:31;;;;;;;91.63;12.02;;;1.10;83.20;;;;;;4125195;28;20100;-76
2022/03/16 05:48:32;;;;;;;107.63;12.38;;;1.20;83.10;;;;;;4111986;28;20045;-76
2022/03/16 05:50:32;;;;;;;92.90;11.95;;;1.20;83.10;;;;;;4155745;28;20053;-76
2022/03/16 05:52:33;;;;;;;133.35;13.35;;;1.20;83.10;;;;;;4142888;28;20026;-76
2022/03/16 05:54:33;;;;;;;126.90;11.93;;;1.10;83.10;;;;;;4139823;28;20101;-76
2022/03/16 05:56:35;;;;;;;103.03;12.18;;;1.20;83.20;;;;;;4142795;28;20041;-75
2022/03/16 05:58:35;;;;;;;128.65;13.88;;;1.20;83.30;;;;;;4141254;28;20022;-75
2022/03/16 06:00:37;;;;;;;106.93;13.48;;;1.20;83.40;;;;;;4143241;28;20065;-75
2022/03/16 06:02:38;;;;;;;131.07;12.60;;;1.20;83.50;;;;;;4156071;28;20114;-75
2022/03/16 06:04:39;;;;;;;158.90;12.45;;;1.20;83.60;;;;;;4140008;28;20291;-75
2022/03/16 06:06:40;;;;;;;64.13;11.63;;;1.30;84.40;;;;;;4141367;28;20033;-75
2022/03/16 06:08:40;;;;;;;109.25;12.07;;;1.30;83.80;;;;;;4161062;28;20057;-75
2022/03/16 06:10:41;;;;;;;106.70;11.38;;;1.30;83.90;;;;;;4126694;28;20277;-75
2022/03/16 06:12:58;;;;;;;100.75;10.57;;;1.30;84.00;;;;;;4154735;28;20036;-75
2022/03/16 06:14:59;;;;;;;117.13;12.20;;;1.40;84.10;;;;;;4161568;28;20032;-76
2022/03/16 06:16:59;;;;;;;122.05;12.73;;;1.40;84.00;;;;;;4149634;28;20018;-75
2022/03/16 06:19:00;;;;;;;61.05;9.68;;;1.50;84.20;;;;;;4141410;28;20030;-75
2022/03/16 06:21:01;;;;;;;105.68;11.23;;;1.40;84.10;;;;;;4142398;28;20035;-75
2022/03/16 06:23:02;;;;;;;91.22;9.55;;;1.50;84.20;;;;;;4142539;28;20042;-75
2022/03/16 06:25:02;;;;;;;101.10;8.63;;;1.50;84.10;;;;;;4141735;28;20033;-75
2022/03/16 06:27:04;;;;;;;163.75;10.63;;;1.50;84.00;;;;;;4143341;28;20094;-75
2022/03/16 06:29:05;;;;;;;86.25;8.85;;;1.50;83.90;;;;;;4143837;28;20102;-76
2022/03/16 06:31:05;;;;;;;75.85;8.77;;;1.50;83.80;;;;;;4147185;28;20059;-75
2022/03/16 06:33:06;;;;;;;78.18;8.50;;;1.50;83.80;;;;;;4140689;28;20024;-75
2022/03/16 06:35:07;;;;;;;72.38;8.20;;;1.50;83.90;;;;;;4146789;28;20040;-75
2022/03/16 06:37:07;;;;;;;90.22;9.63;;;1.50;84.00;;;;;;4143646;28;20032;-75
2022/03/16 06:39:08;;;;;;;72.00;9.23;;;1.50;84.80;;;;;;4135995;28;20623;-75
2022/03/16 06:41:08;;;;;;;116.65;11.45;;;1.50;84.20;;;;;;4141602;28;20395;-75
2022/03/16 06:43:09;;;;;;;58.88;8.77;;;1.60;84.50;;;;;;4150571;28;20741;-75
2022/03/16 06:45:09;;;;;;;104.28;9.90;;;1.60;84.70;;;;;;4144063;28;20197;-75
2022/03/16 06:47:10;;;;;;;92.90;9.10;;;1.60;84.70;;;;;;4140648;28;20034;-75
2022/03/16 06:49:11;;;;;;;64.10;9.88;;;1.60;84.80;;;;;;4145298;28;20092;-75
2022/03/16 06:51:11;;;;;;;86.60;10.57;;;1.70;84.90;;;;;;4144053;28;20025;-75
2022/03/16 06:53:12;;;;;;;114.18;10.65;;;1.70;85.00;;;;;;4143108;28;20051;-75
2022/03/16 06:55:13;;;;;;;94.35;10.43;;;1.70;85.10;;;;;;4134359;28;20085;-75
2022/03/16 06:57:13;;;;;;;61.10;9.35;;;1.70;85.20;;;;;;4135024;28;20026;-75
2022/03/16 06:59:14;;;;;;;67.88;9.25;;;1.80;85.30;;;;;;4144205;28;20517;-75
2022/03/16 07:01:15;;;;;;;70.53;8.48;;;1.80;85.30;;;;;;4142659;28;20038;-75
2022/03/16 07:03:15;;;;;;;72.50;8.75;;;1.90;85.50;;;;;;4143477;28;20387;-75
2022/03/16 07:05:16;;;;;;;57.22;9.13;;;1.90;85.50;;;;;;4143394;28;20359;-75
2022/03/16 07:07:17;;;;;;;62.63;9.10;;;2.00;85.50;;;;;;4138692;28;20088;-75
2022/03/16 07:09:17;;;;;;;46.70;9.65;;;2.10;85.50;;;;;;4141457;28;20044;-75
2022/03/16 07:11:18;;;;;;;57.20;8.82;;;2.10;85.50;;;;;;4155880;28;20018;-75
2022/03/16 07:13:18;;;;;;;44.38;8.75;;;2.20;85.60;;;;;;4162142;28;20035;-75
2022/03/16 07:15:19;;;;;;;55.40;7.80;;;2.20;85.50;;;;;;4133496;28;20106;-75
2022/03/16 07:17:20;;;;;;;39.42;8.60;;;2.20;85.40;;;;;;4166056;28;20104;-75
2022/03/16 07:19:20;;;;;;;28.20;8.30;;;2.30;85.30;;;;;;4141039;28;20394;-75
2022/03/16 07:21:21;;;;;;;39.78;9.60;;;2.30;85.30;;;;;;4142877;28;20071;-75
2022/03/16 07:23:21;;;;;;;54.13;8.75;;;2.30;85.30;;;;;;4134314;28;20457;-75
2022/03/16 07:25:22;;;;;;;62.55;9.52;;;2.40;85.30;;;;;;4165961;28;20064;-75
2022/03/16 07:27:22;;;;;;;50.80;10.18;;;2.40;85.30;;;;;;4144004;28;20026;-75
2022/03/16 07:29:23;;;;;;;70.80;9.50;;;2.40;85.30;;;;;;4163833;28;20029;-76
2022/03/16 07:31:24;;;;;;;60.33;10.18;;;2.40;85.30;;;;;;4147809;28;20101;-75
2022/03/16 07:33:24;;;;;;;43.53;8.98;;;2.40;85.40;;;;;;4137680;28;20039;-75
2022/03/16 07:35:27;;;;;;;46.47;10.15;;;2.50;85.40;;;;;;4139634;28;20053;-75
2022/03/16 07:37:28;;;;;;;33.35;9.38;;;2.50;85.40;;;;;;4150800;28;20062;-75
2022/03/16 07:39:29;;;;;;;45.95;9.73;;;2.60;85.30;;;;;;4129740;28;20384;-75
2022/03/16 07:41:29;;;;;;;34.67;10.02;;;2.60;85.30;;;;;;4146843;28;20026;-75
2022/03/16 07:43:30;;;;;;;52.50;9.93;;;2.60;85.30;;;;;;4146498;28;20041;-75
2022/03/16 07:45:30;;;;;;;53.70;9.50;;;2.70;85.30;;;;;;4148263;28;20026;-75
2022/03/16 07:47:31;;;;;;;56.13;10.05;;;2.70;85.20;;;;;;4146414;28;20034;-75
2022/03/16 07:49:32;;;;;;;68.72;10.45;;;2.70;85.20;;;;;;4137048;28;20506;-76
2022/03/16 07:51:32;;;;;;;36.38;10.13;;;2.70;85.10;;;;;;4146842;28;20117;-75
2022/03/16 07:53:33;;;;;;;32.72;9.88;;;2.80;85.10;;;;;;4149206;28;20024;-75
2022/03/16 07:55:33;;;;;;;37.47;10.13;;;2.80;85.10;;;;;;4166248;28;20026;-75
2022/03/16 07:57:35;;;;;;;32.13;9.95;;;2.80;85.10;;;;;;4148490;28;20065;-75
2022/03/16 07:59:36;;;;;;;30.77;9.82;;;2.90;85.10;;;;;;4129648;28;20042;-75
2022/03/16 08:01:36;;;;;;;66.82;11.93;;;2.90;85.00;;;;;;4147870;28;20031;-75
2022/03/16 08:03:37;;;;;;;48.33;10.55;;;2.90;85.00;;;;;;4143823;28;20091;-75
2022/03/16 08:05:39;;;;;;;27.98;9.85;;;2.90;85.00;;;;;;4140643;28;20025;-75
2022/03/16 08:07:39;;;;;;;50.10;10.88;;;2.90;85.10;;;;;;4138928;28;20563;-75
2022/03/16 08:09:40;;;;;;;39.10;11.05;;;2.90;85.00;;;;;;4133871;28;20240;-76
2022/03/16 08:11:41;;;;;;;59.33;10.90;;;3.00;85.10;;;;;;4137039;28;20030;-75
2022/03/16 08:13:41;;;;;;;24.17;10.85;;;3.00;85.10;;;;;;4134575;28;20036;-75
2022/03/16 08:15:42;;;;;;;28.25;11.02;;;3.00;85.10;;;;;;4138036;28;20554;-75
2022/03/16 08:17:42;;;;;;;55.53;10.88;;;3.10;85.30;;;;;;4134743;28;20040;-76
2022/03/16 08:19:43;;;;;;;49.58;11.77;;;3.10;85.20;;;;;;4134996;28;20026;-76
2022/03/16 08:21:44;;;;;;;47.67;12.40;;;3.10;85.30;;;;;;4142480;28;20038;-76
2022/03/16 08:23:44;;;;;;;32.90;10.90;;;3.20;85.30;;;;;;4130259;28;20042;-75
2022/03/16 08:25:45;;;;;;;36.95;10.73;;;3.20;85.20;;;;;;4138156;28;20030;-75
2022/03/16 08:27:45;;;;;;;43.15;10.85;;;3.20;85.20;;;;;;4125622;28;20030;-76
2022/03/16 08:29:47;;;;;;;43.67;11.73;;;3.30;85.30;;;;;;4139695;28;20038;-75
2022/03/16 08:31:47;;;;;;;41.47;11.45;;;3.30;85.30;;;;;;4122159;28;20072;-75
2022/03/16 08:33:49;;;;;;;66.40;11.82;;;3.30;85.00;;;;;;4120973;28;20252;-75
2022/03/16 08:35:50;;;;;;;36.65;12.35;;;3.40;84.90;;;;;;4137930;28;20534;-75
2022/03/16 08:37:51;;;;;;;37.15;11.55;;;3.40;84.70;;;;;;4138452;28;20048;-75
2022/03/16 08:39:52;;;;;;;31.27;11.43;;;3.40;84.60;;;;;;4139311;28;20067;-75
2022/03/16 08:41:53;;;;;;;63.97;12.10;;;3.40;84.60;;;;;;4138593;28;20116;-75
2022/03/16 08:43:54;;;;;;;42.70;12.90;;;3.40;84.70;;;;;;4117771;28;20042;-76
2022/03/16 08:45:54;;;;;;;38.92;13.90;;;3.40;84.80;;;;;;4121243;28;20030;-75
2022/03/16 08:47:55;;;;;;;39.25;14.35;;;3.40;84.90;;;;;;4124976;28;20032;-75
2022/03/16 08:49:56;;;;;;;36.75;13.48;;;3.40;84.90;;;;;;4138403;28;20026;-75
2022/03/16 08:51:57;;;;;;;38.55;15.13;;;3.40;84.90;;;;;;4138719;28;20048;-75
2022/03/16 08:53:57;;;;;;;57.20;15.20;;;3.40;85.10;;;;;;4122926;28;20115;-75
2022/03/16 08:56:00;;;;;;;35.42;14.60;;;3.40;85.20;;;;;;4122453;28;20516;-75
2022/03/16 08:58:00;;;;;;;41.70;16.15;;;3.50;85.30;;;;;;4138044;28;20566;-75
2022/03/16 09:00:01;;;;;;;43.22;14.90;;;3.50;85.40;;;;;;4126616;28;20377;-75
2022/03/16 09:02:01;;;;;;;57.97;14.68;;;3.60;85.50;;;;;;4133578;28;20035;-75
2022/03/16 09:04:02;;;;;;;45.45;14.30;;;3.60;85.50;;;;;;4140335;28;20041;-75
2022/03/16 09:06:03;;;;;;;43.35;14.45;;;3.60;85.40;;;;;;4141662;28;20037;-75
2022/03/16 09:08:03;;;;;;;28.38;13.70;;;3.70;85.40;;;;;;4143075;28;20030;-75
2022/03/16 09:10:06;;;;;;;31.98;14.25;;;3.70;85.30;;;;;;4138293;28;20018;-75
2022/03/16 09:12:09;;;;;;;31.90;14.60;;;3.70;85.40;;;;;;4124600;28;20038;-75
2022/03/16 09:14:09;;;;;;;29.05;14.00;;;3.70;85.40;;;;;;4137993;28;20038;-75
2022/03/16 09:16:10;;;;;;;29.92;15.10;;;3.70;85.50;;;;;;4143317;28;20080;-75
2022/03/16 09:18:11;;;;;;;27.25;13.85;;;3.80;85.50;;;;;;4115586;28;20057;-75
2022/03/16 09:20:11;;;;;;;30.30;14.93;;;3.80;85.40;;;;;;4140919;28;20064;-75
2022/03/16 09:22:12;;;;;;;27.08;13.48;;;3.80;85.20;;;;;;4139827;28;20033;-75
2022/03/16 09:24:13;;;;;;;30.17;14.80;;;3.80;85.00;;;;;;4120788;28;20058;-75
2022/03/16 09:26:13;;;;;;;28.90;13.57;;;3.80;84.90;;;;;;4105479;28;20023;-75
2022/03/16 09:28:14;;;;;;;28.73;14.50;;;3.90;85.00;;;;;;4135523;28;20441;-75
2022/03/16 09:30:15;;;;;;;30.25;15.18;;;3.80;84.90;;;;;;4122472;28;20023;-75
2022/03/16 09:32:15;;;;;;;31.88;14.02;;;3.90;85.10;;;;;;4147447;28;20031;-75
2022/03/16 09:34:16;;;;;;;27.73;13.55;;;3.90;85.10;;;;;;4155330;28;20081;-75
2022/03/16 09:36:17;;;;;;;30.30;14.13;;;4.00;85.30;;;;;;4147207;28;20034;-75
2022/03/16 09:38:18;;;;;;;27.95;13.70;;;4.00;85.20;;;;;;4144974;28;20094;-76
2022/03/16 09:40:19;;;;;;;29.38;14.15;;;4.00;85.10;;;;;;4154651;28;20488;-75
2022/03/16 09:42:24;;;;;;;27.38;13.95;;;4.10;85.80;;;;;;4160844;28;20106;-75
2022/03/16 09:44:24;;;;;;;27.65;12.70;;;4.10;85.00;;;;;;4152359;28;20030;-75
2022/03/16 09:46:26;;;;;;;22.30;11.98;;;4.20;85.00;;;;;;4131788;28;20069;-75
2022/03/16 09:48:26;;;;;;;22.67;11.90;;;4.20;85.00;;;;;;4154796;28;20130;-75
2022/03/16 09:50:27;;;;;;;24.60;12.30;;;4.20;85.10;;;;;;4150034;28;20049;-75
2022/03/16 09:52:28;;;;;;;25.63;12.10;;;4.30;85.20;;;;;;4147766;28;20034;-75
2022/03/16 09:54:29;;;;;;;24.98;12.48;;;4.30;85.30;;;;;;4158139;28;20036;-75
2022/03/16 09:56:30;;;;;;;27.38;12.82;;;4.40;85.20;;;;;;4136958;28;20056;-75
2022/03/16 09:58:31;;;;;;;26.52;12.30;;;4.40;85.10;;;;;;4135422;28;20032;-75
2022/03/16 10:00:33;;;;;;;23.85;12.45;;;4.40;85.00;;;;;;4148755;28;20480;-76
2022/03/16 10:02:33;;;;;;;26.80;12.30;;;4.40;84.80;;;;;;4141053;28;20161;-75
2022/03/16 10:04:35;;;;;;;21.40;11.50;;;4.50;84.60;;;;;;4131721;28;20064;-75
2022/03/16 10:06:40;;;;;;;23.13;11.82;;;4.50;84.30;;;;;;4144268;28;20119;-75
2022/03/16 10:08:41;;;;;;;22.48;11.27;;;4.50;84.50;;;;;;4134698;28;20756;-75
2022/03/16 10:13:15;;;;;;;21.67;11.15;;;4.50;84.00;;;;;;4158453;28;20021;-75
2022/03/16 10:15:18;;;;;;;20.25;10.52;;;4.50;83.70;;;;;;4130302;28;20022;-75
2022/03/16 10:19:42;;;;;;;20.88;10.43;;;4.50;83.60;;;;;;4129967;28;20549;-75
2022/03/16 10:21:44;;;;;;;23.73;11.02;;;4.50;83.50;;;;;;4131137;28;20016;-75
2022/03/16 10:23:45;;;;;;;21.25;11.05;;;4.50;83.40;;;;;;4124261;28;20040;-75
2022/03/16 10:25:53;;;;;;;19.50;9.77;;;4.50;83.40;;;;;;4113868;28;20037;-75
2022/03/16 10:28:16;;;;;;;18.38;9.15;;;4.50;83.30;;;;;;4137986;28;20037;-75